Time;durP1;ratioP1;P1;durP2;ratioP2;P2;SDS_P1;SDS_P2;PMS_P1;PMS_P2;Temp;Humidity;BMP_temperature;BMP_pressure;BME280_temperature;BME280_humidity;BME280_pressure;Samples;Min_cycle;Max_cycle;Signal;HPM_P1;HPM_P2
2024/03/10 00:00:39;;;;;;;40.53;23.17;;;6.70;99.90;;;;;;5063269;28;20082;-78
2024/03/10 00:03:08;;;;;;;36.05;22.48;;;7.00;99.90;;;;;;5063308;28;20048;-78
2024/03/10 00:05:40;;;;;;;36.58;22.88;;;6.80;99.90;;;;;;5046625;28;20048;-78
2024/03/10 00:08:06;;;;;;;37.78;22.52;;;6.90;99.90;;;;;;5064289;28;20491;-78
2024/03/10 00:10:37;;;;;;;38.67;22.92;;;6.70;99.90;;;;;;5037687;28;20033;-78
2024/03/10 00:13:03;;;;;;;40.60;22.70;;;6.80;99.90;;;;;;5043084;28;20048;-78
2024/03/10 00:15:33;;;;;;;38.38;24.02;;;6.70;99.90;;;;;;5044126;28;20048;-78
2024/03/10 00:17:58;;;;;;;37.03;22.08;;;7.00;99.90;;;;;;5059863;28;20044;-78
2024/03/10 00:20:24;;;;;;;40.03;24.10;;;6.70;99.90;;;;;;5043113;28;20377;-78
2024/03/10 00:22:50;;;;;;;39.03;22.90;;;6.70;99.90;;;;;;5059576;28;20052;-78
2024/03/10 00:25:16;;;;;;;38.42;23.67;;;6.70;99.90;;;;;;5046260;28;20047;-78
2024/03/10 00:27:42;;;;;;;38.55;23.40;;;6.70;99.90;;;;;;5065242;28;20041;-78
2024/03/10 00:30:09;;;;;;;35.60;22.60;;;6.70;99.90;;;;;;5066415;28;20120;-79
2024/03/10 00:32:37;;;;;;;36.42;22.20;;;6.70;99.90;;;;;;5068434;28;20032;-78
2024/03/10 00:35:05;;;;;;;39.70;23.33;;;6.90;99.90;;;;;;5068110;28;20514;-78
2024/03/10 00:37:31;;;;;;;39.90;23.88;;;6.70;99.90;;;;;;5069222;28;20048;-78
2024/03/10 00:39:57;;;;;;;38.33;23.17;;;7.00;99.90;;;;;;5051701;28;20080;-78
2024/03/10 00:42:23;;;;;;;47.35;23.83;;;6.70;99.90;;;;;;5027661;28;20126;-78
2024/03/10 00:44:52;;;;;;;39.55;24.08;;;6.70;99.90;;;;;;5048389;28;20037;-77
2024/03/10 00:47:18;;;;;;;41.40;24.02;;;6.80;99.90;;;;;;5067724;28;20063;-79
2024/03/10 00:49:44;;;;;;;41.30;23.60;;;6.70;99.90;;;;;;5068159;28;20037;-78
2024/03/10 00:52:10;;;;;;;39.50;23.50;;;6.70;99.90;;;;;;5049252;28;20048;-78
2024/03/10 00:54:36;;;;;;;40.10;23.38;;;6.80;99.90;;;;;;5049386;28;20037;-78
2024/03/10 00:57:03;;;;;;;40.25;23.90;;;6.60;99.90;;;;;;5049317;28;20044;-78
2024/03/10 00:59:28;;;;;;;36.63;22.38;;;6.70;99.90;;;;;;5059591;28;20375;-79
2024/03/10 01:01:54;;;;;;;41.65;24.33;;;6.60;99.90;;;;;;5066730;28;20081;-78
2024/03/10 01:04:20;;;;;;;40.28;23.73;;;6.90;99.90;;;;;;5065776;28;20094;-78
2024/03/10 01:06:46;;;;;;;38.78;23.30;;;6.90;99.90;;;;;;5066059;28;20450;-78
2024/03/10 01:09:13;;;;;;;39.25;23.67;;;6.60;99.90;;;;;;5066633;28;20040;-77
2024/03/10 01:11:47;;;;;;;42.13;24.63;;;6.60;99.90;;;;;;5061070;28;20033;-77
2024/03/10 01:14:13;;;;;;;43.13;25.00;;;7.00;99.90;;;;;;5049535;28;20057;-78
2024/03/10 01:16:39;;;;;;;41.17;23.95;;;6.60;99.90;;;;;;5049222;28;20044;-78
2024/03/10 01:19:05;;;;;;;38.58;23.80;;;6.60;99.90;;;;;;5065764;28;20115;-78
2024/03/10 01:21:31;;;;;;;38.33;23.23;;;6.70;99.90;;;;;;5044929;28;20040;-78
2024/03/10 01:23:56;;;;;;;37.83;22.80;;;6.60;99.90;;;;;;5067150;28;20041;-78
2024/03/10 01:26:22;;;;;;;41.65;24.35;;;6.60;99.90;;;;;;5046860;28;20044;-78
2024/03/10 01:28:48;;;;;;;37.75;22.52;;;6.60;99.90;;;;;;5045961;28;20065;-78
2024/03/10 01:31:13;;;;;;;40.22;24.42;;;6.60;99.90;;;;;;5066003;28;20057;-78
2024/03/10 01:33:39;;;;;;;40.15;24.55;;;6.70;99.90;;;;;;5051259;28;20595;-78
2024/03/10 01:36:06;;;;;;;40.53;23.77;;;6.60;99.90;;;;;;5066549;28;20041;-78
2024/03/10 01:38:32;;;;;;;39.55;22.90;;;6.50;99.90;;;;;;5066066;28;20068;-77
2024/03/10 01:40:58;;;;;;;44.17;24.92;;;6.70;99.90;;;;;;5062325;28;20033;-77
2024/03/10 01:43:24;;;;;;;40.15;23.90;;;6.80;99.90;;;;;;5048468;28;20040;-78
2024/03/10 01:45:57;;;;;;;38.60;24.25;;;6.70;99.90;;;;;;5049729;28;20060;-78
2024/03/10 01:48:23;;;;;;;41.70;23.63;;;6.70;99.90;;;;;;5066471;28;20100;-78
2024/03/10 01:50:49;;;;;;;40.38;24.60;;;6.90;99.90;;;;;;5066007;28;20044;-78
2024/03/10 01:53:14;;;;;;;42.40;23.38;;;6.60;99.90;;;;;;5064573;28;20041;-78
2024/03/10 01:55:40;;;;;;;39.13;23.88;;;6.60;99.90;;;;;;5064463;28;20044;-77
2024/03/10 01:58:06;;;;;;;41.03;23.85;;;6.60;99.90;;;;;;5060359;28;20036;-78
2024/03/10 02:00:31;;;;;;;40.83;24.08;;;6.60;99.90;;;;;;5045267;28;20041;-78
2024/03/10 02:02:58;;;;;;;43.72;24.65;;;6.60;99.90;;;;;;5045928;28;20051;-77
2024/03/10 02:05:24;;;;;;;42.35;24.25;;;6.50;99.90;;;;;;5064192;28;20040;-78
2024/03/10 02:07:50;;;;;;;41.67;24.33;;;6.50;99.90;;;;;;5046383;28;20087;-79
2024/03/10 02:10:15;;;;;;;40.53;24.08;;;6.50;99.90;;;;;;5020937;28;20036;-77
2024/03/10 02:12:41;;;;;;;42.88;23.85;;;6.50;99.90;;;;;;5039741;28;20037;-78
2024/03/10 02:15:08;;;;;;;38.30;23.27;;;6.60;99.90;;;;;;5055613;28;20037;-77
2024/03/10 02:17:36;;;;;;;38.50;23.10;;;6.60;99.90;;;;;;5055517;28;20112;-78
2024/03/10 02:20:10;;;;;;;40.58;24.58;;;6.60;99.90;;;;;;5030038;28;20132;-78
2024/03/10 02:22:35;;;;;;;40.40;24.05;;;6.50;99.90;;;;;;5051905;28;20049;-78
2024/03/10 02:25:02;;;;;;;39.33;23.70;;;6.60;99.90;;;;;;5029686;28;20042;-77
2024/03/10 02:27:29;;;;;;;37.60;22.65;;;6.50;99.90;;;;;;5054151;28;20029;-78
2024/03/10 02:30:18;;;;;;;37.97;22.92;;;6.50;99.90;;;;;;5039413;28;20040;-78
2024/03/10 02:49:14;;;;;;;40.90;23.23;;;6.50;99.90;;;;;;5051405;28;20478;-77
2024/03/10 02:51:43;;;;;;;38.70;22.55;;;6.70;99.90;;;;;;5052401;28;20025;-78
2024/03/10 02:54:12;;;;;;;40.35;23.27;;;6.50;99.90;;;;;;5031832;28;20415;-78
2024/03/10 02:56:39;;;;;;;40.05;23.35;;;6.50;99.90;;;;;;5052689;28;20071;-77
2024/03/10 02:59:05;;;;;;;39.33;23.20;;;6.50;99.90;;;;;;5052266;28;20041;-78
2024/03/10 03:01:30;;;;;;;38.55;22.50;;;6.40;99.90;;;;;;5033274;28;20043;-78
2024/03/10 03:03:56;;;;;;;40.13;23.05;;;6.40;99.90;;;;;;5050987;28;20085;-77
2024/03/10 03:06:22;;;;;;;40.55;22.83;;;6.50;99.90;;;;;;5034127;28;20044;-77
2024/03/10 03:08:48;;;;;;;36.35;21.85;;;6.50;99.90;;;;;;5046612;28;20033;-79
2024/03/10 03:11:14;;;;;;;41.15;22.55;;;6.40;99.90;;;;;;5049332;28;20039;-78
2024/03/10 03:13:39;;;;;;;40.55;22.17;;;6.80;99.90;;;;;;5062467;28;20069;-78
2024/03/10 03:16:05;;;;;;;38.70;22.42;;;6.40;99.90;;;;;;5063542;28;20036;-78
2024/03/10 03:18:31;;;;;;;36.42;21.58;;;6.50;99.90;;;;;;5042341;28;20103;-79
2024/03/10 03:20:57;;;;;;;39.42;22.65;;;6.50;99.90;;;;;;5045389;28;20051;-78
2024/03/10 03:23:23;;;;;;;36.08;21.48;;;6.50;99.90;;;;;;5044543;28;20053;-78
2024/03/10 03:25:49;;;;;;;40.22;22.58;;;6.40;99.90;;;;;;5062940;28;20058;-77
2024/03/10 03:28:17;;;;;;;40.83;21.75;;;6.40;99.90;;;;;;5047068;28;20045;-78
2024/03/10 03:30:43;;;;;;;36.63;22.77;;;6.70;99.90;;;;;;5063530;28;20047;-77
2024/03/10 03:33:09;;;;;;;39.17;22.27;;;6.40;99.90;;;;;;5044492;28;20041;-77
2024/03/10 03:35:37;;;;;;;34.47;22.35;;;6.50;99.90;;;;;;5048556;28;20044;-78
2024/03/10 03:38:03;;;;;;;37.00;21.30;;;6.50;99.90;;;;;;5065616;28;20037;-77
2024/03/10 03:40:29;;;;;;;37.25;21.60;;;6.40;99.90;;;;;;5045160;28;20384;-77
2024/03/10 03:42:55;;;;;;;37.20;21.70;;;6.40;99.90;;;;;;5046395;28;20106;-78
2024/03/10 03:45:22;;;;;;;36.60;21.15;;;6.40;99.90;;;;;;5064049;28;20040;-78
2024/03/10 03:47:48;;;;;;;36.17;20.77;;;6.40;99.90;;;;;;5045306;28;20041;-77
2024/03/10 03:50:15;;;;;;;35.92;21.10;;;6.50;99.90;;;;;;5055153;28;20044;-77
2024/03/10 03:52:41;;;;;;;34.45;21.77;;;6.40;99.90;;;;;;5046438;28;20045;-78
2024/03/10 03:55:07;;;;;;;35.90;21.73;;;6.40;99.90;;;;;;5062879;28;20044;-78
2024/03/10 03:57:33;;;;;;;34.92;21.20;;;6.40;99.90;;;;;;5046895;28;20032;-78
2024/03/10 03:59:59;;;;;;;41.15;22.40;;;6.40;99.90;;;;;;5046737;28;20074;-78
2024/03/10 04:02:25;;;;;;;37.38;21.02;;;6.40;99.90;;;;;;5062843;28;20044;-78
2024/03/10 04:04:52;;;;;;;37.75;21.98;;;6.40;99.90;;;;;;5064149;28;20057;-78
2024/03/10 04:07:18;;;;;;;35.10;21.23;;;6.60;99.90;;;;;;5062560;28;20073;-77
2024/03/10 04:09:44;;;;;;;36.88;21.13;;;6.40;99.90;;;;;;5041205;28;20102;-77
2024/03/10 04:12:10;;;;;;;38.22;22.25;;;6.40;99.90;;;;;;5102089;23;21465;-76
2024/03/10 04:14:37;;;;;;;35.75;21.27;;;6.40;99.90;;;;;;5037103;28;20483;-77
2024/03/10 04:17:03;;;;;;;37.08;21.00;;;6.60;99.90;;;;;;5016719;28;20037;-78
2024/03/10 04:19:28;;;;;;;37.55;22.10;;;6.40;99.90;;;;;;5048331;28;20399;-79
2024/03/10 04:21:54;;;;;;;38.80;21.50;;;6.60;99.90;;;;;;5032313;28;20041;-78
2024/03/10 04:24:21;;;;;;;36.10;21.40;;;6.30;99.90;;;;;;5032197;28;20223;-78
2024/03/10 04:26:47;;;;;;;37.33;21.67;;;6.30;99.90;;;;;;5050705;28;20040;-78
2024/03/10 04:29:13;;;;;;;35.47;20.92;;;6.50;99.90;;;;;;5050775;28;20045;-78
2024/03/10 04:31:39;;;;;;;37.28;22.10;;;6.30;99.90;;;;;;5050863;28;20033;-78
2024/03/10 04:34:05;;;;;;;35.75;21.75;;;6.30;99.90;;;;;;5033571;28;20130;-78
2024/03/10 04:36:31;;;;;;;34.88;21.13;;;6.30;99.90;;;;;;5035214;28;20384;-78
2024/03/10 04:38:57;;;;;;;36.15;21.17;;;6.30;99.90;;;;;;5033986;28;20037;-78
2024/03/10 04:41:23;;;;;;;32.97;19.83;;;6.30;99.90;;;;;;5034881;28;20049;-79
2024/03/10 04:43:49;;;;;;;35.22;21.08;;;6.20;99.90;;;;;;5056115;28;20051;-79
2024/03/10 04:46:15;;;;;;;36.88;21.42;;;6.40;99.90;;;;;;5034808;28;20515;-78
2024/03/10 04:48:40;;;;;;;37.67;21.08;;;6.20;99.90;;;;;;5035946;28;20040;-78
2024/03/10 04:51:06;;;;;;;36.17;21.73;;;6.30;99.90;;;;;;5043135;28;20119;-78
2024/03/10 04:53:32;;;;;;;38.03;21.95;;;6.40;99.90;;;;;;5041402;28;20123;-78
2024/03/10 04:55:58;;;;;;;37.28;21.55;;;6.40;99.90;;;;;;5054001;28;20041;-78
2024/03/10 04:58:23;;;;;;;36.75;21.67;;;6.20;99.90;;;;;;5036511;28;20064;-78
2024/03/10 05:00:49;;;;;;;34.95;20.92;;;6.10;99.90;;;;;;5036422;28;20087;-78
2024/03/10 05:03:15;;;;;;;38.78;22.05;;;6.40;99.90;;;;;;5055826;28;20037;-78
2024/03/10 05:05:41;;;;;;;38.03;21.42;;;6.20;99.90;;;;;;5037023;28;20029;-78
2024/03/10 05:08:08;;;;;;;37.15;21.42;;;6.60;99.90;;;;;;5035487;28;20036;-78
2024/03/10 05:10:34;;;;;;;37.58;22.00;;;6.10;99.90;;;;;;5036256;28;20043;-79
2024/03/10 05:13:00;;;;;;;34.22;21.42;;;6.10;99.90;;;;;;5032019;28;20051;-79
2024/03/10 05:15:26;;;;;;;40.72;22.38;;;6.10;99.90;;;;;;5036396;28;20095;-79
2024/03/10 05:17:52;;;;;;;38.50;22.02;;;6.20;99.90;;;;;;5048635;28;20073;-78
2024/03/10 05:20:20;;;;;;;35.15;21.10;;;6.10;99.90;;;;;;5026832;28;20073;-78
2024/03/10 05:22:45;;;;;;;40.33;22.92;;;6.00;99.90;;;;;;5041202;28;20037;-78
2024/03/10 05:25:11;;;;;;;39.58;21.90;;;6.00;99.90;;;;;;5019381;28;20607;-78
2024/03/10 05:27:41;;;;;;;37.47;22.20;;;6.10;99.90;;;;;;5035301;28;20108;-78
2024/03/10 05:30:07;;;;;;;39.17;22.13;;;6.00;99.90;;;;;;5052881;28;20155;-78
2024/03/10 05:32:33;;;;;;;36.33;21.00;;;6.00;99.90;;;;;;5035299;28;20102;-78
2024/03/10 05:34:59;;;;;;;35.45;21.88;;;6.30;99.90;;;;;;5033668;28;20052;-78
2024/03/10 05:37:25;;;;;;;36.78;22.17;;;6.10;99.90;;;;;;5019099;28;20041;-78
2024/03/10 05:39:50;;;;;;;37.75;22.35;;;5.90;99.90;;;;;;5034940;28;20055;-78
2024/03/10 05:42:16;;;;;;;40.75;22.58;;;5.90;99.90;;;;;;5035551;28;20041;-78
2024/03/10 05:44:41;;;;;;;39.65;22.75;;;6.00;99.90;;;;;;5034550;28;20045;-78
2024/03/10 05:47:07;;;;;;;35.95;21.63;;;5.90;99.90;;;;;;5029781;28;20095;-78
2024/03/10 05:49:33;;;;;;;36.08;22.10;;;6.10;99.90;;;;;;5035067;28;20029;-79
2024/03/10 05:51:59;;;;;;;38.60;21.92;;;6.00;99.90;;;;;;5039203;28;20033;-78
2024/03/10 05:54:25;;;;;;;40.10;22.27;;;5.90;99.90;;;;;;5052905;28;20501;-78
2024/03/10 05:56:51;;;;;;;43.05;22.10;;;6.20;99.90;;;;;;5053036;28;20045;-78
2024/03/10 05:59:16;;;;;;;40.20;22.67;;;5.80;99.90;;;;;;5052779;28;20037;-79
2024/03/10 06:01:42;;;;;;;40.58;23.15;;;5.80;99.90;;;;;;5034960;28;20036;-78
2024/03/10 06:04:08;;;;;;;39.80;23.05;;;5.80;99.90;;;;;;5037822;28;20125;-78
2024/03/10 06:06:33;;;;;;;40.20;23.55;;;5.80;99.90;;;;;;5035435;28;20402;-78
2024/03/10 06:09:00;;;;;;;40.33;23.23;;;6.10;99.90;;;;;;5052726;28;20534;-79
2024/03/10 06:11:26;;;;;;;40.83;23.35;;;5.70;99.90;;;;;;5034897;28;20410;-79
2024/03/10 06:13:52;;;;;;;39.78;22.05;;;6.00;99.90;;;;;;5059408;28;20131;-78
2024/03/10 06:16:18;;;;;;;43.85;23.90;;;5.70;99.90;;;;;;5034832;28;20128;-78
2024/03/10 06:26:53;;;;;;;38.58;22.90;;;5.70;99.90;;;;;;5029360;28;20053;-78
2024/03/10 06:29:19;;;;;;;40.50;23.15;;;5.70;99.90;;;;;;5052105;28;20399;-79
2024/03/10 06:31:45;;;;;;;41.88;24.05;;;5.70;99.90;;;;;;5034562;28;20123;-78
2024/03/10 06:34:11;;;;;;;41.25;23.98;;;5.70;99.90;;;;;;5034547;28;20132;-78
2024/03/10 06:36:37;;;;;;;40.92;23.73;;;5.60;99.90;;;;;;5034298;28;20037;-78
2024/03/10 06:39:06;;;;;;;44.45;25.48;;;5.60;99.90;;;;;;5052321;28;20091;-78
2024/03/10 06:41:35;;;;;;;45.55;24.90;;;6.00;99.90;;;;;;5030754;28;20443;-78
2024/03/10 06:44:06;;;;;;;41.95;23.98;;;5.60;99.90;;;;;;5041309;28;20112;-79
2024/03/10 06:46:32;;;;;;;41.38;24.13;;;5.60;99.90;;;;;;5052019;28;20041;-78
2024/03/10 06:48:57;;;;;;;40.83;24.45;;;5.60;99.90;;;;;;5033720;28;20094;-78
2024/03/10 06:51:24;;;;;;;43.67;24.40;;;5.90;99.90;;;;;;5057308;28;20499;-78
2024/03/10 06:53:50;;;;;;;42.58;24.70;;;5.60;99.90;;;;;;5041524;28;20045;-78
2024/03/10 06:56:15;;;;;;;43.30;24.95;;;5.80;99.90;;;;;;5029127;28;20392;-78
2024/03/10 06:58:51;;;;;;;45.30;24.92;;;5.60;99.90;;;;;;5034006;28;20116;-79
2024/03/10 07:01:19;;;;;;;45.65;25.02;;;5.60;99.90;;;;;;5052062;28;20040;-78
2024/03/10 07:03:45;;;;;;;43.67;24.95;;;5.60;99.90;;;;;;5033519;28;20041;-79
2024/03/10 07:06:11;;;;;;;40.47;24.33;;;5.60;99.90;;;;;;5033252;28;20040;-79
2024/03/10 07:08:37;;;;;;;44.28;24.90;;;5.60;99.90;;;;;;5033697;28;20090;-78
2024/03/10 07:11:02;;;;;;;42.42;24.95;;;5.60;99.90;;;;;;5033875;28;20079;-78
2024/03/10 07:13:28;;;;;;;43.78;24.75;;;5.60;99.90;;;;;;5033628;28;20532;-78
2024/03/10 07:15:54;;;;;;;44.40;25.33;;;5.80;99.90;;;;;;5051604;28;20426;-78
2024/03/10 07:18:20;;;;;;;43.72;25.33;;;5.70;99.90;;;;;;5033598;28;20052;-78
2024/03/10 07:20:46;;;;;;;42.63;24.73;;;6.00;99.90;;;;;;5028191;28;20479;-78
2024/03/10 07:23:12;;;;;;;46.90;26.38;;;5.70;99.90;;;;;;5015412;28;20040;-78
2024/03/10 07:25:38;;;;;;;41.55;24.77;;;5.70;99.90;;;;;;5029595;28;20411;-78
2024/03/10 07:28:04;;;;;;;45.10;25.30;;;5.70;99.90;;;;;;5039196;28;20029;-78
2024/03/10 07:30:31;;;;;;;47.35;26.50;;;5.70;99.90;;;;;;5034828;28;20040;-78
2024/03/10 07:32:57;;;;;;;47.00;27.30;;;5.70;99.90;;;;;;5037400;28;20041;-78
2024/03/10 07:35:23;;;;;;;45.38;26.00;;;5.60;99.90;;;;;;5028022;28;20597;-78
2024/03/10 07:37:49;;;;;;;43.95;26.48;;;5.70;99.90;;;;;;5024190;28;20049;-78
2024/03/10 07:40:16;;;;;;;46.70;26.75;;;5.70;99.90;;;;;;5044780;28;20117;-78
2024/03/10 07:42:48;;;;;;;45.65;26.70;;;5.70;99.90;;;;;;5031452;28;20043;-78
2024/03/10 07:45:18;;;;;;;44.60;26.00;;;5.80;99.90;;;;;;5051160;28;20045;-79
2024/03/10 07:47:45;;;;;;;45.17;26.80;;;5.80;99.90;;;;;;5031482;28;20040;-78
2024/03/10 07:50:17;;;;;;;47.58;26.58;;;5.80;99.90;;;;;;5040327;28;20041;-79
2024/03/10 07:52:45;;;;;;;45.72;26.73;;;5.90;99.90;;;;;;5032541;28;20037;-78
2024/03/10 07:55:10;;;;;;;45.78;26.40;;;5.90;99.90;;;;;;5048666;28;20106;-78
2024/03/10 07:57:39;;;;;;;47.00;26.30;;;5.90;99.90;;;;;;5033948;28;20048;-78
2024/03/10 08:00:11;;;;;;;48.15;26.73;;;6.00;99.90;;;;;;5030092;28;20052;-79
2024/03/10 08:02:38;;;;;;;44.55;26.15;;;6.00;99.90;;;;;;5023326;28;20518;-78
2024/03/10 08:05:06;;;;;;;52.83;28.23;;;6.00;99.90;;;;;;5031948;28;20044;-78
2024/03/10 08:07:31;;;;;;;45.72;27.02;;;6.10;99.90;;;;;;5006270;28;20044;-79
2024/03/10 08:09:58;;;;;;;48.80;27.77;;;6.20;99.90;;;;;;5020912;28;20045;-78
2024/03/10 08:12:25;;;;;;;47.70;27.30;;;6.20;99.90;;;;;;5032083;28;20053;-77
2024/03/10 08:14:50;;;;;;;45.70;27.02;;;6.20;99.90;;;;;;5047853;28;20435;-77
2024/03/10 08:17:16;;;;;;;48.15;27.65;;;6.50;99.90;;;;;;5029159;28;20187;-77
2024/03/10 08:19:42;;;;;;;47.83;27.55;;;6.20;99.90;;;;;;5039641;28;20033;-77
2024/03/10 08:22:09;;;;;;;49.33;28.40;;;6.20;99.90;;;;;;5020741;28;20033;-78
2024/03/10 08:24:37;;;;;;;46.80;26.60;;;6.30;99.90;;;;;;5034026;28;20044;-78
2024/03/10 08:27:03;;;;;;;48.55;26.95;;;6.30;99.90;;;;;;5047152;28;20529;-78
2024/03/10 08:29:28;;;;;;;47.33;27.38;;;6.30;99.90;;;;;;5046390;28;20034;-77
2024/03/10 08:31:55;;;;;;;49.90;27.27;;;6.50;99.90;;;;;;5051454;28;20045;-77
2024/03/10 08:34:20;;;;;;;49.75;28.08;;;6.40;99.90;;;;;;5045353;28;20045;-77
2024/03/10 08:36:46;;;;;;;48.47;27.58;;;6.40;99.90;;;;;;5049202;28;20083;-78
2024/03/10 08:39:16;;;;;;;48.25;27.80;;;6.50;99.90;;;;;;5025423;28;20049;-77
2024/03/10 08:41:42;;;;;;;46.63;27.23;;;6.50;99.90;;;;;;5045175;28;20034;-78
2024/03/10 08:44:08;;;;;;;51.67;29.25;;;6.50;99.90;;;;;;5025553;28;20046;-77
2024/03/10 08:46:33;;;;;;;49.05;27.98;;;6.50;99.90;;;;;;5045685;28;20049;-78
2024/03/10 08:48:59;;;;;;;48.40;28.85;;;6.60;99.90;;;;;;5011244;28;20033;-77
2024/03/10 08:51:26;;;;;;;50.38;28.50;;;6.80;99.90;;;;;;5044335;28;20028;-77
2024/03/10 08:53:51;;;;;;;47.08;26.20;;;6.70;99.90;;;;;;5052520;28;20041;-78
2024/03/10 08:56:17;;;;;;;48.47;28.63;;;6.80;99.90;;;;;;5033017;28;20040;-77
2024/03/10 08:58:43;;;;;;;49.90;28.60;;;6.70;99.90;;;;;;5017335;28;20045;-77
2024/03/10 09:01:09;;;;;;;50.78;28.05;;;6.70;99.90;;;;;;5048821;28;20037;-77
2024/03/10 09:03:35;;;;;;;48.90;28.85;;;6.80;99.90;;;;;;5051139;28;20048;-78
2024/03/10 09:06:01;;;;;;;47.92;29.33;;;6.80;99.90;;;;;;5052695;28;20037;-78
2024/03/10 09:08:27;;;;;;;49.30;28.83;;;6.80;99.90;;;;;;5053658;28;20154;-77
2024/03/10 09:10:55;;;;;;;47.95;28.67;;;6.90;99.90;;;;;;5017899;28;20099;-78
2024/03/10 09:13:20;;;;;;;48.53;28.40;;;6.80;99.90;;;;;;5047262;28;20037;-78
2024/03/10 09:15:46;;;;;;;48.95;28.95;;;6.90;99.90;;;;;;5011025;28;20046;-78
2024/03/10 09:18:12;;;;;;;51.13;29.05;;;7.00;99.90;;;;;;5051682;28;20116;-78
2024/03/10 09:20:39;;;;;;;53.47;28.80;;;7.00;99.90;;;;;;5032624;28;20053;-77
2024/03/10 09:23:05;;;;;;;46.90;28.25;;;7.10;99.90;;;;;;5035553;28;20041;-78
2024/03/10 09:25:30;;;;;;;50.53;27.83;;;7.00;99.90;;;;;;5045519;28;20095;-77
2024/03/10 09:27:56;;;;;;;49.72;28.92;;;7.20;99.90;;;;;;5041148;28;20033;-77
2024/03/10 09:30:28;;;;;;;50.97;29.08;;;7.20;99.90;;;;;;5024907;28;20450;-78
2024/03/10 09:32:54;;;;;;;52.88;29.65;;;7.30;99.90;;;;;;5028604;28;20060;-78
2024/03/10 09:35:34;;;;;;;49.70;29.23;;;7.40;99.90;;;;;;5042891;28;20124;-77
2024/03/10 09:38:05;;;;;;;47.88;28.73;;;7.30;99.90;;;;;;5029630;28;20063;-78
2024/03/10 09:40:32;;;;;;;49.60;29.83;;;7.40;99.90;;;;;;5053298;28;20032;-77
2024/03/10 09:43:11;;;;;;;48.65;28.83;;;7.50;99.90;;;;;;5044248;28;20658;-78
2024/03/10 09:45:43;;;;;;;46.30;28.13;;;7.50;99.90;;;;;;5043573;28;20037;-77
2024/03/10 09:48:09;;;;;;;51.55;29.80;;;7.60;99.90;;;;;;5047964;28;20041;-77
2024/03/10 09:50:49;;;;;;;49.30;29.40;;;7.70;99.90;;;;;;5028688;28;20095;-78
2024/03/10 09:53:17;;;;;;;44.63;28.35;;;7.80;99.90;;;;;;5047900;28;20041;-78
2024/03/10 09:55:44;;;;;;;50.40;28.80;;;7.80;99.90;;;;;;5046647;28;20041;-78
2024/03/10 09:58:15;;;;;;;48.22;29.98;;;7.90;99.90;;;;;;5046260;28;20672;-78
2024/03/10 10:00:50;;;;;;;48.85;29.35;;;8.10;99.90;;;;;;5016334;28;20040;-79
2024/03/10 10:03:18;;;;;;;47.13;28.55;;;8.20;99.90;;;;;;5028433;28;20087;-79
2024/03/10 10:05:47;;;;;;;49.08;30.08;;;8.50;99.90;;;;;;5044875;28;20103;-78
2024/03/10 10:08:13;;;;;;;47.55;29.55;;;8.40;99.90;;;;;;5019841;28;20036;-78
2024/03/10 10:10:42;;;;;;;45.45;28.63;;;8.50;99.90;;;;;;5040494;28;20037;-78
2024/03/10 10:13:08;;;;;;;47.47;29.52;;;8.50;99.90;;;;;;5047810;23;20132;-75
2024/03/10 10:15:34;;;;;;;50.08;30.30;;;8.70;99.90;;;;;;5032033;28;20045;-76
2024/03/10 10:18:02;;;;;;;44.67;29.02;;;8.80;99.90;;;;;;5015895;28;20534;-75
2024/03/10 10:20:28;;;;;;;47.95;29.20;;;8.90;99.90;;;;;;5049578;28;20093;-75
2024/03/10 10:23:02;;;;;;;48.15;30.33;;;9.00;99.90;;;;;;5030890;28;20045;-75
2024/03/10 10:25:28;;;;;;;46.88;28.85;;;9.20;99.90;;;;;;5027482;28;20704;-76
2024/03/10 10:27:59;;;;;;;43.78;28.83;;;9.20;99.90;;;;;;5026122;28;20530;-75
2024/03/10 10:30:28;;;;;;;46.40;28.88;;;9.30;99.90;;;;;;5026106;28;20045;-76
2024/03/10 10:33:11;;;;;;;47.45;30.02;;;9.40;99.90;;;;;;5012950;28;20056;-75
2024/03/10 10:35:45;;;;;;;43.85;30.23;;;9.50;99.90;;;;;;5027008;28;20637;-75
2024/03/10 10:38:11;;;;;;;43.28;29.30;;;9.60;99.90;;;;;;5029994;28;20427;-76
2024/03/10 10:40:58;;;;;;;47.25;30.58;;;9.70;99.90;;;;;;5026933;28;20041;-76
2024/03/10 10:43:24;;;;;;;49.22;30.90;;;9.90;99.90;;;;;;5012293;28;20384;-76
2024/03/10 10:45:50;;;;;;;42.22;28.98;;;9.90;99.90;;;;;;5008856;28;20124;-76
2024/03/10 10:48:16;;;;;;;44.50;29.92;;;10.10;99.90;;;;;;5023518;28;20558;-75
2024/03/10 10:50:47;;;;;;;43.33;29.50;;;10.20;99.90;;;;;;5014219;28;20395;-76
2024/03/10 10:53:15;;;;;;;44.40;29.10;;;10.40;99.90;;;;;;4996636;28;20161;-76
2024/03/10 10:55:42;;;;;;;41.63;28.17;;;10.50;99.90;;;;;;5008303;28;20496;-76
2024/03/10 10:58:15;;;;;;;45.13;29.20;;;10.60;99.90;;;;;;5026338;28;20050;-76
2024/03/10 11:00:50;;;;;;;41.85;28.40;;;10.70;99.90;;;;;;5012946;28;20076;-77
2024/03/10 11:03:18;;;;;;;41.42;28.17;;;10.70;99.90;;;;;;5011552;28;20042;-76
2024/03/10 11:06:08;;;;;;;42.13;28.27;;;10.80;99.90;;;;;;5032070;28;20041;-76
2024/03/10 11:08:35;;;;;;;40.97;28.13;;;10.70;99.90;;;;;;5013775;28;20091;-77
2024/03/10 11:11:02;;;;;;;42.75;29.08;;;10.70;99.90;;;;;;5030561;28;20037;-76
2024/03/10 11:13:28;;;;;;;41.22;28.17;;;10.70;99.90;;;;;;5033127;28;20452;-77
2024/03/10 11:16:19;;;;;;;42.83;28.63;;;10.70;99.90;;;;;;5013761;28;20041;-76
2024/03/10 11:18:49;;;;;;;41.55;28.80;;;10.80;99.90;;;;;;5006249;28;20088;-77
2024/03/10 11:21:19;;;;;;;38.72;27.48;;;10.90;99.90;;;;;;5025683;28;20053;-77
2024/03/10 11:23:52;;;;;;;42.50;29.40;;;11.00;99.90;;;;;;5001646;28;20048;-76
2024/03/10 11:26:23;;;;;;;40.67;28.60;;;11.10;99.90;;;;;;5007300;28;20412;-77
2024/03/10 11:28:56;;;;;;;38.47;28.45;;;11.30;99.90;;;;;;5027149;28;20496;-76
2024/03/10 11:31:35;;;;;;;38.95;28.48;;;11.30;99.90;;;;;;5013342;28;20037;-76
2024/03/10 11:34:04;;;;;;;41.53;28.85;;;11.40;99.90;;;;;;5026002;28;20527;-75
2024/03/10 11:36:39;;;;;;;40.72;27.25;;;11.40;99.90;;;;;;5012442;28;20588;-76
2024/03/10 11:39:07;;;;;;;39.70;27.75;;;11.40;99.90;;;;;;4993741;28;20049;-77
2024/03/10 11:41:33;;;;;;;38.33;28.13;;;11.50;99.90;;;;;;5029820;28;20048;-76
2024/03/10 11:44:00;;;;;;;38.10;27.50;;;11.50;99.90;;;;;;5013361;28;20041;-76
2024/03/10 11:46:26;;;;;;;39.72;27.52;;;11.50;99.90;;;;;;5012481;28;20037;-77
2024/03/10 11:48:56;;;;;;;38.33;27.38;;;11.50;99.90;;;;;;5011733;28;20037;-78
2024/03/10 11:51:29;;;;;;;40.45;27.80;;;11.50;99.90;;;;;;5006956;28;20050;-77
2024/03/10 11:54:00;;;;;;;36.17;27.77;;;11.60;99.90;;;;;;5031837;28;20050;-77
2024/03/10 11:56:26;;;;;;;38.22;28.25;;;11.80;99.90;;;;;;5031796;28;20037;-76
2024/03/10 11:58:57;;;;;;;38.83;27.52;;;11.90;99.90;;;;;;5030944;28;20544;-75
2024/03/10 12:01:24;;;;;;;37.63;27.67;;;12.00;99.90;;;;;;5014765;28;20052;-76
2024/03/10 12:03:54;;;;;;;42.40;28.17;;;12.00;99.90;;;;;;5024044;28;20040;-77
2024/03/10 12:06:25;;;;;;;40.50;28.15;;;12.00;99.90;;;;;;5014524;28;20041;-76
2024/03/10 12:08:51;;;;;;;39.47;28.58;;;11.90;99.90;;;;;;5017442;28;20431;-76
2024/03/10 12:11:23;;;;;;;39.47;28.00;;;11.90;99.90;;;;;;5011607;28;20361;-76
2024/03/10 12:13:51;;;;;;;41.53;29.48;;;11.70;99.90;;;;;;5011317;28;20076;-76
2024/03/10 12:16:17;;;;;;;39.50;27.75;;;11.60;99.90;;;;;;5010549;28;20491;-77
2024/03/10 12:18:43;;;;;;;40.10;28.80;;;11.60;99.90;;;;;;5011193;28;20034;-76
2024/03/10 12:21:10;;;;;;;41.78;28.88;;;11.70;99.90;;;;;;5002091;28;20049;-77
2024/03/10 12:23:37;;;;;;;36.08;26.23;;;11.70;99.90;;;;;;5019829;28;20411;-78
2024/03/10 12:26:11;;;;;;;36.75;26.35;;;11.80;99.90;;;;;;5005608;28;20072;-78
2024/03/10 12:28:39;;;;;;;37.40;27.60;;;11.90;99.90;;;;;;4995163;28;20061;-75
2024/03/10 12:31:12;;;;;;;38.97;28.83;;;12.10;99.90;;;;;;5028102;28;20038;-78
2024/03/10 12:33:42;;;;;;;37.67;28.00;;;12.10;99.90;;;;;;4997216;28;20042;-79
2024/03/10 12:36:09;;;;;;;41.00;28.42;;;12.30;99.90;;;;;;4999006;28;20042;-79
2024/03/10 12:39:16;;;;;;;38.30;27.30;;;12.30;99.90;;;;;;5016040;28;20049;-79
2024/03/10 12:42:08;;;;;;;34.78;26.17;;;12.40;99.90;;;;;;5026640;28;20040;-76
2024/03/10 12:44:37;;;;;;;35.38;26.95;;;12.50;99.90;;;;;;5027177;28;20038;-76
2024/03/10 12:47:03;;;;;;;;;;;12.50;99.90;;;;;;5031211;28;20029;-76
2024/03/10 12:49:28;;;;;;;37.72;26.33;;;12.60;99.90;;;;;;4996214;28;19917;-77
2024/03/10 12:52:00;;;;;;;36.05;25.85;;;12.70;99.90;;;;;;5030818;28;20040;-76
2024/03/10 12:54:26;;;;;;;35.58;27.10;;;12.60;99.90;;;;;;4997068;28;20109;-76
2024/03/10 12:56:54;;;;;;;38.40;26.48;;;12.60;99.90;;;;;;5032555;28;20065;-76
2024/03/10 12:59:20;;;;;;;38.92;27.10;;;12.50;99.90;;;;;;5011491;28;20039;-77
2024/03/10 13:01:46;;;;;;;34.58;25.80;;;12.40;99.90;;;;;;5010410;28;20030;-78